Time;durP1;ratioP1;P1;durP2;ratioP2;P2;SDS_P1;SDS_P2;PMS_P1;PMS_P2;Temp;Humidity;BMP_temperature;BMP_pressure;BME280_temperature;BME280_humidity;BME280_pressure;Samples;Min_cycle;Max_cycle;Signal;HPM_P1;HPM_P2
2021/12/23 00:01:14;;;;;;;8.48;6.90;;;11.90;51.70;;;;;;5096242;28;20075;-71
2021/12/23 00:03:40;;;;;;;9.73;7.47;;;11.80;51.40;;;;;;5092816;28;20544;-72
2021/12/23 00:06:05;;;;;;;12.77;8.35;;;11.80;51.70;;;;;;5095972;28;20055;-71
2021/12/23 00:08:33;;;;;;;10.55;7.75;;;11.80;51.80;;;;;;5095673;28;20052;-70
2021/12/23 00:10:59;;;;;;;11.50;8.85;;;11.70;51.50;;;;;;5095599;28;20060;-72
2021/12/23 00:13:24;;;;;;;10.63;7.50;;;11.70;51.60;;;;;;5095808;28;20458;-72
2021/12/23 00:23:47;;;;;;;10.15;8.00;;;11.50;51.50;;;;;;5095395;28;20056;-72
2021/12/23 00:26:12;;;;;;;9.40;7.43;;;11.40;51.80;;;;;;5095585;28;20112;-70
2021/12/23 00:28:38;;;;;;;9.88;7.13;;;11.50;52.00;;;;;;5076409;28;20379;-71
2021/12/23 00:31:05;;;;;;;10.40;7.75;;;11.50;52.00;;;;;;5075080;28;20052;-70
2021/12/23 00:33:31;;;;;;;13.95;8.70;;;11.50;52.10;;;;;;5075260;28;20470;-71
2021/12/23 00:35:58;;;;;;;11.90;7.88;;;11.60;52.20;;;;;;5074926;28;20047;-72
2021/12/23 00:38:33;;;;;;;9.93;7.63;;;11.60;52.10;;;;;;5075260;28;20084;-72
2021/12/23 00:41:01;;;;;;;10.98;7.60;;;11.50;52.10;;;;;;5075346;28;20047;-71
2021/12/23 00:43:28;;;;;;;9.05;7.28;;;11.60;51.90;;;;;;5074890;28;20106;-71
2021/12/23 00:45:54;;;;;;;9.38;6.82;;;11.50;51.90;;;;;;5075065;28;20106;-70
2021/12/23 00:48:20;;;;;;;9.77;7.40;;;11.50;52.10;;;;;;5074969;28;20056;-72
2021/12/23 00:50:47;;;;;;;10.60;7.50;;;11.50;52.20;;;;;;5074853;28;20063;-72
2021/12/23 00:53:21;;;;;;;10.65;7.55;;;11.40;51.90;;;;;;5075189;28;20375;-70
2021/12/23 00:55:51;;;;;;;10.27;6.90;;;11.40;52.00;;;;;;5075091;28;20139;-70
2021/12/23 00:58:17;;;;;;;10.00;7.35;;;11.30;52.20;;;;;;5057474;28;20345;-71
2021/12/23 01:00:44;;;;;;;8.70;6.47;;;11.30;52.20;;;;;;5074936;28;20356;-72
2021/12/23 01:03:10;;;;;;;9.25;7.40;;;11.20;52.30;;;;;;5076997;28;20040;-72
2021/12/23 01:05:36;;;;;;;9.38;6.75;;;11.20;52.30;;;;;;5057251;28;20410;-71
2021/12/23 01:08:03;;;;;;;9.13;6.90;;;11.20;52.30;;;;;;5057228;28;20433;-72
2021/12/23 01:10:29;;;;;;;9.07;6.88;;;11.20;52.30;;;;;;5074876;28;20044;-72
2021/12/23 01:13:02;;;;;;;10.00;7.07;;;11.20;52.00;;;;;;5084062;28;20079;-70
2021/12/23 01:18:13;;;;;;;9.18;7.00;;;11.10;52.00;;;;;;5094699;28;20138;-73
2021/12/23 01:20:51;;;;;;;9.13;7.13;;;11.10;52.00;;;;;;5077904;28;20088;-72
2021/12/23 01:23:19;;;;;;;10.27;6.97;;;11.10;52.00;;;;;;5095009;28;20380;-72
2021/12/23 01:25:45;;;;;;;9.00;7.25;;;11.10;52.10;;;;;;5095407;28;20044;-70
2021/12/23 01:28:11;;;;;;;8.95;7.60;;;11.00;52.10;;;;;;5076726;28;20076;-71
2021/12/23 01:30:38;;;;;;;8.18;6.32;;;11.00;52.90;;;;;;5099005;28;20408;-72
2021/12/23 01:33:05;;;;;;;8.90;6.47;;;11.00;52.40;;;;;;5098790;28;20044;-71
2021/12/23 01:35:31;;;;;;;8.15;6.78;;;11.00;52.40;;;;;;5080928;28;20073;-72
2021/12/23 01:37:57;;;;;;;9.10;6.35;;;11.00;52.10;;;;;;5098759;28;20127;-71
2021/12/23 01:40:24;;;;;;;8.82;6.88;;;11.00;52.10;;;;;;5098664;28;20055;-71
2021/12/23 01:42:50;;;;;;;8.48;6.68;;;10.90;52.20;;;;;;5098344;28;20059;-71
2021/12/23 01:45:19;;;;;;;9.27;7.30;;;10.90;52.10;;;;;;5098201;28;20047;-71
2021/12/23 01:47:45;;;;;;;14.38;7.47;;;10.90;52.10;;;;;;5098989;28;20070;-71
2021/12/23 01:50:14;;;;;;;10.25;7.07;;;11.00;52.20;;;;;;5098162;28;20054;-71
2021/12/23 01:52:40;;;;;;;9.73;7.28;;;11.10;52.10;;;;;;5098539;28;20048;-70
2021/12/23 01:55:07;;;;;;;9.93;6.95;;;11.10;52.00;;;;;;5098414;28;20050;-71
2021/12/23 01:57:33;;;;;;;8.35;6.80;;;11.10;51.90;;;;;;5082646;28;20083;-71
2021/12/23 02:00:05;;;;;;;10.23;6.53;;;11.00;51.90;;;;;;5060836;28;20055;-70
2021/12/23 02:02:32;;;;;;;8.48;6.57;;;11.10;51.90;;;;;;5060480;28;20352;-72
2021/12/23 02:04:57;;;;;;;9.43;7.72;;;11.10;51.90;;;;;;5077725;28;20076;-72
2021/12/23 02:07:23;;;;;;;9.80;7.03;;;11.10;51.60;;;;;;5059945;28;20083;-71
2021/12/23 02:09:49;;;;;;;7.90;7.10;;;11.00;51.60;;;;;;5077560;28;20107;-71
2021/12/23 02:12:15;;;;;;;8.48;6.65;;;11.00;51.70;;;;;;5077345;28;20063;-72
2021/12/23 02:14:41;;;;;;;10.27;7.00;;;11.10;51.80;;;;;;5077699;28;20048;-71
2021/12/23 02:17:07;;;;;;;9.85;7.22;;;11.10;51.60;;;;;;5078024;28;20052;-70
2021/12/23 02:19:33;;;;;;;8.13;6.57;;;11.10;52.30;;;;;;5077966;28;20471;-71
2021/12/23 02:21:59;;;;;;;9.02;7.07;;;11.10;51.80;;;;;;5077611;28;20123;-70
2021/12/23 02:24:25;;;;;;;8.65;6.95;;;11.10;51.70;;;;;;5089096;28;20036;-71
2021/12/23 02:26:51;;;;;;;12.32;6.93;;;11.00;51.70;;;;;;5080989;28;20056;-70
2021/12/23 02:29:17;;;;;;;8.90;7.07;;;11.00;51.80;;;;;;5077428;28;20056;-72
2021/12/23 02:31:50;;;;;;;8.30;6.75;;;10.90;51.70;;;;;;5077131;28;20459;-71
2021/12/23 02:34:17;;;;;;;8.02;6.75;;;10.80;52.30;;;;;;5059923;28;20080;-72
2021/12/23 02:36:52;;;;;;;9.55;6.60;;;10.80;52.00;;;;;;5077453;28;20352;-71
2021/12/23 02:39:19;;;;;;;9.70;6.53;;;10.90;51.80;;;;;;5076749;28;20109;-70
2021/12/23 02:41:45;;;;;;;10.38;7.25;;;10.90;52.00;;;;;;5059736;28;20097;-69
2021/12/23 02:44:12;;;;;;;7.78;6.35;;;10.80;51.80;;;;;;5077018;28;20048;-70
2021/12/23 02:46:38;;;;;;;7.25;6.32;;;10.90;52.00;;;;;;5076980;28;20056;-72
2021/12/23 02:49:03;;;;;;;12.13;7.00;;;10.90;52.00;;;;;;5076912;28;20076;-71
2021/12/23 02:51:29;;;;;;;10.10;6.57;;;10.80;51.80;;;;;;5076607;28;20091;-70
2021/12/23 02:53:55;;;;;;;9.65;6.88;;;10.80;51.80;;;;;;5076924;28;20051;-70
2021/12/23 02:56:21;;;;;;;8.52;6.93;;;10.80;51.90;;;;;;5059213;28;20095;-71
2021/12/23 02:58:46;;;;;;;9.38;6.72;;;10.80;52.10;;;;;;5077121;28;20048;-71
2021/12/23 03:01:14;;;;;;;9.25;7.10;;;10.80;52.00;;;;;;5076990;28;20352;-72
2021/12/23 03:03:40;;;;;;;9.27;7.18;;;10.70;52.10;;;;;;5076899;28;20079;-71
2021/12/23 03:06:06;;;;;;;9.30;7.20;;;10.80;52.10;;;;;;5076842;28;20405;-71
2021/12/23 03:08:40;;;;;;;10.07;7.55;;;10.70;51.80;;;;;;5076152;28;20067;-73
2021/12/23 03:11:08;;;;;;;8.18;6.72;;;10.70;51.90;;;;;;5058818;28;20095;-72
2021/12/23 03:13:34;;;;;;;10.60;7.60;;;10.70;52.00;;;;;;5076487;28;20098;-71
2021/12/23 03:16:00;;;;;;;9.80;7.20;;;10.60;51.80;;;;;;5076737;28;20037;-70
2021/12/23 03:18:27;;;;;;;9.23;6.93;;;10.60;52.00;;;;;;5093849;28;20084;-70
2021/12/23 03:20:53;;;;;;;8.82;6.90;;;10.60;52.10;;;;;;5096681;28;20096;-70
2021/12/23 03:23:19;;;;;;;9.85;7.00;;;10.60;52.10;;;;;;5096579;28;20048;-71
2021/12/23 03:25:45;;;;;;;9.45;7.35;;;10.60;52.10;;;;;;5091240;28;20049;-71
2021/12/23 03:28:11;;;;;;;10.43;7.45;;;10.60;52.20;;;;;;5076180;28;20145;-72
2021/12/23 03:30:37;;;;;;;10.25;7.40;;;10.60;52.20;;;;;;5076126;28;20094;-72
2021/12/23 03:33:04;;;;;;;9.50;7.07;;;10.60;51.90;;;;;;5076104;28;20045;-72
2021/12/23 03:35:29;;;;;;;8.23;7.32;;;10.50;52.00;;;;;;5078508;28;20041;-72
2021/12/23 03:37:56;;;;;;;10.93;7.40;;;10.40;52.20;;;;;;5096741;28;20328;-71
2021/12/23 03:40:22;;;;;;;9.45;7.05;;;10.50;52.20;;;;;;5079353;28;20109;-70
2021/12/23 03:42:48;;;;;;;10.00;7.22;;;10.50;52.10;;;;;;5096060;28;20130;-72
2021/12/23 03:45:14;;;;;;;8.95;7.53;;;10.50;52.10;;;;;;5078360;28;20098;-71
2021/12/23 03:47:40;;;;;;;11.32;8.10;;;10.50;52.20;;;;;;5096148;28;20048;-71
2021/12/23 03:50:07;;;;;;;8.30;7.28;;;10.50;52.20;;;;;;5091286;28;20080;-71
2021/12/23 03:52:34;;;;;;;9.73;7.53;;;10.40;52.00;;;;;;5063487;28;20044;-72
2021/12/23 03:55:00;;;;;;;9.98;7.38;;;10.50;52.20;;;;;;5095225;28;20340;-73
2021/12/23 03:57:26;;;;;;;12.40;8.60;;;10.40;52.20;;;;;;5078581;28;20044;-70
2021/12/23 03:59:51;;;;;;;10.18;7.70;;;10.40;51.90;;;;;;5096090;28;20055;-72
2021/12/23 04:02:17;;;;;;;10.82;8.00;;;10.30;52.10;;;;;;5074069;28;20056;-71
2021/12/23 04:04:43;;;;;;;10.48;8.23;;;10.30;52.20;;;;;;5075400;28;20051;-72
2021/12/23 04:07:09;;;;;;;10.30;7.93;;;10.30;52.30;;;;;;5075155;28;20480;-72
2021/12/23 04:09:35;;;;;;;9.13;8.02;;;10.30;52.30;;;;;;5041149;28;20498;-71
2021/12/23 04:12:01;;;;;;;9.20;8.07;;;10.30;52.20;;;;;;5075537;28;20087;-72
2021/12/23 04:14:26;;;;;;;8.60;7.28;;;10.30;52.40;;;;;;5075745;28;20475;-72
2021/12/23 04:16:52;;;;;;;9.85;7.55;;;10.30;52.30;;;;;;5058007;28;20052;-70
2021/12/23 04:19:18;;;;;;;10.27;7.32;;;10.40;52.30;;;;;;5058593;28;20049;-71
2021/12/23 04:21:44;;;;;;;10.20;7.53;;;10.40;52.40;;;;;;5058088;28;20041;-69
2021/12/23 04:24:11;;;;;;;12.55;8.50;;;10.40;52.30;;;;;;5075319;28;20363;-72
2021/12/23 04:26:38;;;;;;;9.70;7.78;;;10.40;52.20;;;;;;5075224;28;20135;-71
2021/12/23 04:29:05;;;;;;;10.35;8.07;;;10.40;52.20;;;;;;5057608;28;20368;-70
2021/12/23 04:31:31;;;;;;;9.20;7.10;;;10.30;52.00;;;;;;5075425;28;20054;-71
2021/12/23 04:33:57;;;;;;;10.38;7.85;;;10.30;52.30;;;;;;5073019;28;20056;-71
2021/12/23 04:36:28;;;;;;;9.93;8.05;;;10.30;52.40;;;;;;5058366;28;20060;-72
2021/12/23 04:38:54;;;;;;;11.32;7.80;;;10.30;52.40;;;;;;5075105;28;20088;-71
2021/12/23 04:41:20;;;;;;;9.68;7.82;;;10.30;52.30;;;;;;5075238;28;20063;-71
2021/12/23 04:43:46;;;;;;;10.18;7.88;;;10.20;52.30;;;;;;5058605;28;20106;-72
2021/12/23 04:46:12;;;;;;;9.55;7.65;;;10.20;52.30;;;;;;5070096;28;20483;-72
2021/12/23 04:48:39;;;;;;;10.27;7.93;;;10.20;52.60;;;;;;5085313;28;20056;-71
2021/12/23 04:51:05;;;;;;;11.32;8.45;;;10.20;52.60;;;;;;5091755;28;20036;-71
2021/12/23 04:53:31;;;;;;;14.05;8.35;;;10.20;52.70;;;;;;5092227;28;20078;-71
2021/12/23 04:55:57;;;;;;;10.60;8.13;;;10.20;52.70;;;;;;5078045;28;20083;-70
2021/12/23 04:58:24;;;;;;;11.32;8.40;;;10.30;52.70;;;;;;5074783;28;20084;-71
2021/12/23 05:00:51;;;;;;;11.52;8.38;;;10.20;52.50;;;;;;5078811;28;20040;-71
2021/12/23 05:03:20;;;;;;;8.98;6.85;;;10.20;53.10;;;;;;5094729;28;20060;-73
2021/12/23 05:05:46;;;;;;;12.18;8.65;;;10.40;53.00;;;;;;5098827;28;20081;-69
2021/12/23 05:08:13;;;;;;;13.77;8.68;;;10.50;52.80;;;;;;5081641;28;20135;-73
2021/12/23 05:10:39;;;;;;;14.60;9.57;;;10.70;52.30;;;;;;5099764;28;20127;-72
2021/12/23 05:13:05;;;;;;;13.27;9.52;;;10.70;51.50;;;;;;5081435;28;20048;-71
2021/12/23 05:15:31;;;;;;;12.98;10.95;;;10.70;50.70;;;;;;5098886;28;20097;-68
2021/12/23 05:17:57;;;;;;;15.82;10.60;;;10.70;50.40;;;;;;5099023;28;20374;-73
2021/12/23 05:20:24;;;;;;;16.95;10.65;;;10.70;50.10;;;;;;5076160;28;20472;-73
2021/12/23 05:22:50;;;;;;;16.10;9.05;;;10.70;50.20;;;;;;5083554;28;20068;-74
2021/12/23 05:25:17;;;;;;;11.82;8.88;;;10.80;50.40;;;;;;5080100;28;20040;-75
2021/12/23 05:27:43;;;;;;;10.27;8.40;;;10.90;51.40;;;;;;5098997;28;20043;-72
2021/12/23 05:30:12;;;;;;;11.07;8.73;;;10.90;50.80;;;;;;5062184;28;20463;-76
2021/12/23 05:32:39;;;;;;;14.48;9.15;;;11.00;51.80;;;;;;5078292;28;20079;-76
2021/12/23 05:35:06;;;;;;;10.98;7.85;;;11.20;52.10;;;;;;5054827;28;20055;-72
2021/12/23 05:37:31;;;;;;;11.25;7.00;;;11.50;51.10;;;;;;5080236;28;20055;-75
2021/12/23 05:39:57;;;;;;;8.95;5.70;;;11.90;50.80;;;;;;5080473;28;20383;-72
2021/12/23 05:42:23;;;;;;;7.32;5.45;;;12.20;50.80;;;;;;5097109;28;20097;-75
2021/12/23 05:44:49;;;;;;;118.15;15.00;;;12.50;50.70;;;;;;5084804;28;20425;-74
2021/12/23 05:47:14;;;;;;;12.38;6.15;;;12.40;53.10;;;;;;5079099;28;20086;-77
2021/12/23 05:49:40;;;;;;;10.05;4.97;;;12.70;51.80;;;;;;5071058;28;20086;-73
2021/12/23 05:52:06;;;;;;;10.50;5.40;;;13.00;51.50;;;;;;5078748;28;20469;-72
2021/12/23 05:54:32;;;;;;;11.85;5.50;;;13.30;51.90;;;;;;5062646;28;20063;-78
2021/12/23 05:57:01;;;;;;;11.80;5.22;;;13.40;52.20;;;;;;5085234;28;20049;-73
2021/12/23 05:59:31;;;;;;;11.90;4.90;;;13.50;52.80;;;;;;5079256;28;20422;-76
2021/12/23 06:01:58;;;;;;;13.02;4.68;;;13.70;53.30;;;;;;5093150;28;20055;-75
2021/12/23 06:04:24;;;;;;;12.57;4.65;;;13.80;53.40;;;;;;5060663;28;20067;-74
2021/12/23 06:06:50;;;;;;;10.75;4.55;;;14.00;53.70;;;;;;5077684;28;20045;-76
2021/12/23 06:09:16;;;;;;;12.25;4.82;;;14.10;53.80;;;;;;5059859;28;20045;-75
2021/12/23 06:11:42;;;;;;;14.98;5.13;;;14.30;53.70;;;;;;5077090;28;20047;-76
2021/12/23 06:14:07;;;;;;;11.40;4.15;;;14.50;53.60;;;;;;5077480;28;20080;-76
2021/12/23 06:16:33;;;;;;;10.95;3.97;;;14.60;53.30;;;;;;5077340;28;20347;-74
2021/12/23 06:18:59;;;;;;;12.15;4.72;;;14.80;53.20;;;;;;5077398;28;20120;-75
2021/12/23 06:21:28;;;;;;;10.52;4.00;;;14.90;53.10;;;;;;5059826;28;20040;-75
2021/12/23 06:23:54;;;;;;;12.35;4.20;;;15.00;53.00;;;;;;5077663;28;20052;-76
2021/12/23 06:26:21;;;;;;;18.08;4.93;;;15.10;53.10;;;;;;5076983;28;20048;-76
2021/12/23 06:28:47;;;;;;;22.67;4.97;;;15.20;53.30;;;;;;5059883;28;20060;-76
2021/12/23 06:31:13;;;;;;;16.58;5.22;;;15.30;53.30;;;;;;5060010;28;20062;-75
2021/12/23 06:33:39;;;;;;;20.00;4.95;;;15.30;53.30;;;;;;5059801;28;20119;-76
2021/12/23 06:36:05;;;;;;;16.95;4.47;;;15.30;53.50;;;;;;5059972;28;20044;-75
2021/12/23 06:38:31;;;;;;;23.10;5.22;;;15.40;53.30;;;;;;5077397;28;20091;-77
2021/12/23 06:40:57;;;;;;;15.30;4.43;;;15.50;53.30;;;;;;5043266;28;20084;-77
2021/12/23 06:43:22;;;;;;;9.32;4.10;;;15.60;53.20;;;;;;5077305;28;20123;-80
2021/12/23 06:45:48;;;;;;;9.95;4.25;;;15.60;53.30;;;;;;5076764;28;20052;-78
2021/12/23 06:48:14;;;;;;;13.82;4.63;;;15.60;53.40;;;;;;5059409;28;20072;-78
2021/12/23 06:50:39;;;;;;;17.88;4.30;;;15.70;53.40;;;;;;5059453;28;20059;-79
2021/12/23 06:53:05;;;;;;;14.90;4.43;;;15.70;53.40;;;;;;5077057;28;20040;-77
2021/12/23 06:55:31;;;;;;;10.45;4.38;;;15.70;53.30;;;;;;5059181;28;20032;-79
2021/12/23 06:57:57;;;;;;;14.55;4.10;;;15.80;53.30;;;;;;5058889;28;20110;-76
2021/12/23 07:00:26;;;;;;;9.15;4.47;;;15.80;53.40;;;;;;5076918;28;20067;-76
2021/12/23 07:02:53;;;;;;;9.90;4.10;;;15.80;53.40;;;;;;5077411;28;20052;-77
2021/12/23 07:05:19;;;;;;;10.32;4.97;;;15.90;53.00;;;;;;5076689;28;20475;-76
2021/12/23 07:10:17;;;;;;;11.48;4.03;;;15.90;53.10;;;;;;5086578;28;20066;-76
2021/12/23 07:12:42;;;;;;;10.88;3.97;;;15.90;53.10;;;;;;5095330;28;20451;-77
2021/12/23 07:15:08;;;;;;;7.85;4.40;;;15.90;53.10;;;;;;5076527;28;20040;-77
2021/12/23 07:17:35;;;;;;;10.88;4.75;;;15.90;53.00;;;;;;5076617;28;20044;-76
2021/12/23 07:20:02;;;;;;;12.10;4.57;;;16.00;52.80;;;;;;5076390;28;20049;-76
2021/12/23 07:22:28;;;;;;;8.88;4.40;;;16.10;52.80;;;;;;5076158;28;20044;-76
2021/12/23 07:24:53;;;;;;;6.85;3.92;;;16.10;52.80;;;;;;5080517;28;20101;-79
2021/12/23 07:27:19;;;;;;;19.27;4.43;;;16.20;52.60;;;;;;5077171;28;20040;-79
2021/12/23 07:29:45;;;;;;;21.77;5.15;;;16.20;52.40;;;;;;5078476;28;20093;-78
2021/12/23 07:32:11;;;;;;;15.05;4.47;;;16.20;53.10;;;;;;5058668;28;20045;-79
2021/12/23 07:34:39;;;;;;;11.45;4.40;;;16.30;52.40;;;;;;5075926;28;20084;-80
2021/12/23 07:37:05;;;;;;;11.00;3.92;;;16.30;52.40;;;;;;5058390;28;20127;-75
2021/12/23 07:39:31;;;;;;;10.60;4.25;;;16.30;52.30;;;;;;5083557;28;20412;-76
2021/12/23 07:41:57;;;;;;;11.05;4.57;;;16.40;52.20;;;;;;5072849;28;20052;-78
2021/12/23 07:44:22;;;;;;;9.13;3.78;;;16.40;52.10;;;;;;5058450;28;20048;-78
2021/12/23 07:46:50;;;;;;;17.95;4.25;;;16.40;52.00;;;;;;5075251;28;20063;-77
2021/12/23 07:49:17;;;;;;;17.83;4.20;;;16.40;52.10;;;;;;5064211;28;20056;-80
2021/12/23 07:51:43;;;;;;;12.93;5.05;;;16.50;52.10;;;;;;5078040;28;20047;-79
2021/12/23 07:54:09;;;;;;;13.90;4.63;;;16.50;52.10;;;;;;5083352;28;20457;-78
2021/12/23 07:56:35;;;;;;;12.43;4.82;;;16.50;52.20;;;;;;5072245;28;20148;-78
2021/12/23 07:59:02;;;;;;;10.40;4.18;;;16.50;52.10;;;;;;5085279;28;20043;-78
2021/12/23 08:01:27;;;;;;;8.95;3.83;;;16.60;52.30;;;;;;5077857;28;20118;-79
2021/12/23 08:03:53;;;;;;;11.75;4.28;;;16.60;52.20;;;;;;5112182;28;20393;-79
2021/12/23 08:06:24;;;;;;;13.35;4.38;;;16.70;52.10;;;;;;5102327;28;20123;-80
2021/12/23 08:09:05;;;;;;;9.77;4.25;;;16.80;52.00;;;;;;5082520;28;20162;-78
2021/12/23 08:11:30;;;;;;;8.88;4.75;;;16.70;51.80;;;;;;5059500;28;20063;-78
2021/12/23 08:13:56;;;;;;;6.55;4.13;;;16.70;51.80;;;;;;5073206;28;20067;-77
2021/12/23 08:16:22;;;;;;;14.45;5.10;;;16.30;52.20;;;;;;5088912;28;20098;-78
2021/12/23 08:18:47;;;;;;;12.85;4.35;;;16.50;52.30;;;;;;5066152;28;20409;-79
2021/12/23 08:21:13;;;;;;;8.50;5.22;;;16.60;52.00;;;;;;5072486;28;20447;-77
2021/12/23 08:23:39;;;;;;;9.55;4.63;;;16.30;52.50;;;;;;5073813;28;20035;-79
2021/12/23 08:26:11;;;;;;;8.52;4.90;;;16.30;53.00;;;;;;5094371;28;20476;-78
2021/12/23 08:28:37;;;;;;;13.93;5.05;;;16.50;52.50;;;;;;5105445;28;20055;-81
2021/12/23 08:31:08;;;;;;;12.25;5.30;;;16.60;52.50;;;;;;5060593;28;20117;-77
2021/12/23 08:33:34;;;;;;;20.13;6.53;;;16.70;52.20;;;;;;5097414;28;20071;-77
2021/12/23 08:36:00;;;;;;;10.13;5.47;;;16.80;52.00;;;;;;5074619;28;20079;-78
2021/12/23 08:38:29;;;;;;;12.35;5.70;;;16.90;51.90;;;;;;5074648;28;20036;-74
2021/12/23 08:40:56;;;;;;;16.55;6.63;;;16.90;51.80;;;;;;5074778;28;20413;-75
2021/12/23 08:43:22;;;;;;;14.80;6.50;;;16.90;51.70;;;;;;5075585;28;20486;-73
2021/12/23 08:45:48;;;;;;;11.65;6.57;;;16.80;52.10;;;;;;5085908;28;20086;-79
2021/12/23 08:48:15;;;;;;;11.70;6.10;;;16.80;51.90;;;;;;5078739;28;20056;-75
2021/12/23 08:50:41;;;;;;;13.93;6.63;;;16.90;51.80;;;;;;5080954;28;20133;-73
2021/12/23 08:53:06;;;;;;;14.25;8.23;;;16.90;51.80;;;;;;5077202;28;20135;-76
2021/12/23 08:55:33;;;;;;;9.68;6.90;;;16.90;51.60;;;;;;5086321;28;20048;-77
2021/12/23 08:58:03;;;;;;;13.60;7.55;;;16.90;51.60;;;;;;5077169;28;20055;-76
2021/12/23 09:00:30;;;;;;;14.77;7.85;;;17.00;51.60;;;;;;5094144;28;20048;-77
2021/12/23 09:02:56;;;;;;;16.52;7.85;;;17.10;51.50;;;;;;5094116;28;20048;-75
2021/12/23 09:05:21;;;;;;;11.77;7.72;;;17.10;51.30;;;;;;5094794;28;20423;-76
2021/12/23 09:07:51;;;;;;;11.35;7.32;;;17.20;51.10;;;;;;5090723;28;20052;-77
2021/12/23 09:10:17;;;;;;;12.10;8.35;;;17.20;51.10;;;;;;5074786;28;20371;-76
2021/12/23 09:12:44;;;;;;;14.95;7.82;;;17.20;51.20;;;;;;5057206;28;20132;-76
2021/12/23 09:15:10;;;;;;;14.88;7.78;;;17.30;51.30;;;;;;5057064;28;20459;-77
2021/12/23 09:17:36;;;;;;;16.15;9.00;;;17.30;51.40;;;;;;5074987;28;20053;-78
2021/12/23 09:20:04;;;;;;;11.35;8.43;;;17.20;51.50;;;;;;5057035;28;20455;-78
2021/12/23 09:22:29;;;;;;;15.50;9.80;;;17.20;51.60;;;;;;5057577;28;20048;-80
2021/12/23 09:24:58;;;;;;;16.38;9.27;;;17.20;51.20;;;;;;5057250;28;20151;-77
2021/12/23 09:27:37;;;;;;;17.48;9.50;;;17.20;51.20;;;;;;5074768;28;20044;-76
2021/12/23 09:32:52;;;;;;;13.50;8.43;;;17.30;51.40;;;;;;5087273;28;20467;-77
2021/12/23 09:35:19;;;;;;;14.80;9.93;;;17.40;51.40;;;;;;5087038;28;20055;-78
2021/12/23 09:37:45;;;;;;;17.98;9.80;;;17.40;51.60;;;;;;5067306;28;20048;-77
2021/12/23 09:40:35;;;;;;;15.65;10.20;;;17.40;51.50;;;;;;5084704;28;20123;-77
2021/12/23 09:43:05;;;;;;;17.45;10.70;;;17.40;51.30;;;;;;5088987;28;20045;-77
2021/12/23 09:45:32;;;;;;;17.90;10.18;;;17.40;51.30;;;;;;5069223;28;20052;-78
2021/12/23 09:47:59;;;;;;;23.63;10.05;;;17.50;51.40;;;;;;5073747;28;20059;-78
2021/12/23 09:50:28;;;;;;;16.55;10.35;;;17.50;51.40;;;;;;5076333;28;20066;-72
2021/12/23 09:52:54;;;;;;;17.42;10.75;;;17.40;51.60;;;;;;5085513;28;20052;-76
2021/12/23 09:55:25;;;;;;;20.33;11.45;;;17.40;51.60;;;;;;5083312;28;20044;-74
2021/12/23 09:57:53;;;;;;;18.02;11.30;;;17.40;51.40;;;;;;5078288;28;20051;-72
2021/12/23 10:00:22;;;;;;;24.20;12.82;;;17.40;51.10;;;;;;5098297;28;20060;-72
2021/12/23 10:02:49;;;;;;;24.48;13.65;;;17.40;50.50;;;;;;5086014;28;20106;-72
2021/12/23 10:05:19;;;;;;;24.48;14.45;;;17.40;50.40;;;;;;5083499;28;20052;-74
2021/12/23 10:07:47;;;;;;;25.23;13.68;;;17.40;50.20;;;;;;5080471;28;20434;-73
2021/12/23 10:10:41;;;;;;;21.52;13.23;;;17.40;50.40;;;;;;5098110;28;20066;-71
2021/12/23 10:38:18;;;;;;;23.67;16.23;;;16.60;55.90;;;;;;5064905;28;20080;-74
2021/12/23 10:40:49;;;;;;;23.02;15.07;;;16.70;56.00;;;;;;5078579;28;20040;-71
2021/12/23 10:43:41;;;;;;;26.08;17.42;;;16.80;56.30;;;;;;5079862;28;20458;-73
2021/12/23 10:46:16;;;;;;;25.63;17.02;;;16.80;56.50;;;;;;5097547;28;20385;-73
2021/12/23 10:48:58;;;;;;;27.58;19.55;;;16.80;55.30;;;;;;5097370;28;20062;-77
2021/12/23 10:51:23;;;;;;;32.47;21.40;;;16.70;54.20;;;;;;5084707;28;20413;-72
2021/12/23 10:59:26;;;;;;;30.58;22.45;;;16.60;51.30;;;;;;5097382;28;20402;-74
2021/12/23 11:02:00;;;;;;;30.75;21.85;;;16.40;50.90;;;;;;5096605;28;20040;-74
2021/12/23 11:04:27;;;;;;;28.48;20.50;;;16.40;51.10;;;;;;5097052;28;20044;-74
2021/12/23 11:07:23;;;;;;;27.33;21.08;;;16.30;51.30;;;;;;5097121;28;20040;-72
2021/12/23 11:38:31;;;;;;;21.73;15.70;;;16.60;52.90;;;;;;5058802;28;20052;-75
2021/12/23 11:41:04;;;;;;;24.55;15.75;;;16.50;52.30;;;;;;5076142;28;20041;-71
2021/12/23 11:43:51;;;;;;;25.63;14.77;;;16.50;51.90;;;;;;5076198;28;20053;-74
2021/12/23 11:46:41;;;;;;;36.65;17.15;;;16.50;51.80;;;;;;5096226;28;20056;-73
2021/12/23 11:49:10;;;;;;;34.80;17.25;;;16.50;51.00;;;;;;5093067;28;20065;-72
2021/12/23 11:54:14;;;;;;;33.13;15.40;;;16.60;51.20;;;;;;5066107;28;20047;-74
2021/12/23 11:57:03;;;;;;;25.48;14.15;;;16.60;51.20;;;;;;5082893;28;20056;-76
2021/12/23 11:59:32;;;;;;;24.25;14.40;;;16.70;51.30;;;;;;5075375;28;20451;-76
2021/12/23 12:02:00;;;;;;;20.95;12.70;;;16.80;51.70;;;;;;5059011;28;20033;-74
2021/12/23 12:04:35;;;;;;;21.92;13.43;;;16.90;52.50;;;;;;5075975;28;20129;-73
2021/12/23 12:07:16;;;;;;;21.15;13.60;;;16.90;54.20;;;;;;5075493;28;20122;-75
2021/12/23 12:09:58;;;;;;;25.70;12.38;;;16.80;55.10;;;;;;5055347;28;20052;-75
2021/12/23 12:12:25;;;;;;;22.92;11.95;;;16.90;55.40;;;;;;5074947;28;20056;-73
2021/12/23 12:14:55;;;;;;;19.77;12.10;;;16.90;55.40;;;;;;5057830;28;20041;-77
2021/12/23 12:17:25;;;;;;;30.73;13.40;;;16.90;55.30;;;;;;5074897;28;20036;-72
2021/12/23 12:20:34;;;;;;;24.27;13.45;;;16.80;55.70;;;;;;5075037;28;20461;-74
2021/12/23 12:23:14;;;;;;;24.67;12.65;;;16.80;56.10;;;;;;5092490;28;20048;-71
2021/12/23 12:25:52;;;;;;;25.38;13.07;;;16.80;56.60;;;;;;5095096;28;20051;-76
2021/12/23 12:28:26;;;;;;;29.40;13.93;;;16.80;56.80;;;;;;5095260;28;20052;-75
2021/12/23 12:30:56;;;;;;;22.77;13.82;;;16.70;57.40;;;;;;5095838;28;20063;-73
2021/12/23 12:33:24;;;;;;;23.23;13.10;;;16.70;56.60;;;;;;5095612;28;20052;-76
2021/12/23 12:36:13;;;;;;;23.02;14.50;;;16.70;56.30;;;;;;5061238;28;20055;-74
2021/12/23 12:38:45;;;;;;;24.02;15.23;;;16.50;55.80;;;;;;5078033;28;20049;-73
2021/12/23 12:41:33;;;;;;;23.05;14.80;;;16.50;56.60;;;;;;5057967;28;20380;-74
2021/12/23 12:44:06;;;;;;;19.40;13.20;;;16.50;56.50;;;;;;5075570;28;20380;-79
2021/12/23 12:46:45;;;;;;;16.40;11.73;;;16.60;55.90;;;;;;5040382;28;20464;-77
2021/12/23 12:49:24;;;;;;;19.77;12.68;;;16.60;56.10;;;;;;5075020;28;20052;-78
2021/12/23 12:51:51;;;;;;;21.25;13.25;;;16.60;55.70;;;;;;5057451;28;20100;-79
2021/12/23 12:54:26;;;;;;;21.25;12.20;;;16.70;55.70;;;;;;5075153;28;20044;-77
2021/12/23 12:56:55;;;;;;;16.60;11.85;;;16.70;56.20;;;;;;5058018;28;20060;-76
2021/12/23 12:59:27;;;;;;;21.88;12.32;;;16.70;56.30;;;;;;5074854;28;20063;-77
2021/12/23 13:01:54;;;;;;;21.55;12.45;;;16.70;56.00;;;;;;5057440;28;20044;-76
2021/12/23 13:04:35;;;;;;;19.10;12.20;;;16.70;55.90;;;;;;5075020;28;20048;-78
2021/12/23 13:07:15;;;;;;;24.88;16.63;;;16.70;56.30;;;;;;5057270;28;20530;-79
2021/12/23 13:10:12;;;;;;;20.45;11.55;;;16.60;53.70;;;;;;5074875;28;20063;-77
2021/12/23 13:12:45;;;;;;;17.67;11.10;;;16.70;56.90;;;;;;5075573;28;20477;-77
2021/12/23 13:15:23;;;;;;;19.90;12.30;;;16.70;57.00;;;;;;5057852;28;20053;-80
2021/12/23 13:18:04;;;;;;;21.00;12.02;;;16.70;57.10;;;;;;5075254;28;20083;-75
2021/12/23 13:20:47;;;;;;;17.45;11.10;;;16.70;57.30;;;;;;5074536;28;20455;-72
2021/12/23 13:23:29;;;;;;;18.77;11.70;;;16.70;57.60;;;;;;5075592;28;20053;-71
2021/12/23 13:26:05;;;;;;;22.23;11.95;;;16.70;57.60;;;;;;5078685;28;20321;-73
2021/12/23 13:28:39;;;;;;;21.33;11.60;;;16.70;57.50;;;;;;5079081;28;20091;-72
2021/12/23 13:31:22;;;;;;;19.40;12.05;;;16.80;57.00;;;;;;5078365;28;20460;-72
2021/12/23 13:33:57;;;;;;;30.27;12.32;;;16.80;56.90;;;;;;5061003;28;20351;-71
2021/12/23 13:36:42;;;;;;;25.55;14.35;;;16.80;57.10;;;;;;5078930;28;20032;-73
2021/12/23 13:39:19;;;;;;;23.98;15.25;;;16.80;56.20;;;;;;5061318;28;20060;-74
2021/12/23 13:41:54;;;;;;;25.95;14.80;;;16.90;55.40;;;;;;5078415;28;20359;-72
2021/12/23 13:44:22;;;;;;;22.48;13.95;;;16.90;54.80;;;;;;5078545;28;20133;-70
2021/12/23 13:47:11;;;;;;;20.63;13.25;;;17.00;54.80;;;;;;5077999;28;20060;-74
2021/12/23 13:49:46;;;;;;;17.90;12.38;;;17.00;54.70;;;;;;5078452;28;20135;-70
2021/12/23 13:52:25;;;;;;;22.83;11.98;;;17.10;54.70;;;;;;5078119;28;20119;-73
2021/12/23 13:55:00;;;;;;;21.73;12.35;;;17.10;54.60;;;;;;5077772;28;20044;-72
2021/12/23 13:57:28;;;;;;;17.63;11.80;;;17.20;53.30;;;;;;5077390;28;20040;-73
2021/12/23 13:59:54;;;;;;;16.63;11.82;;;17.20;54.40;;;;;;5077766;28;20055;-72
2021/12/23 14:02:25;;;;;;;22.08;12.20;;;17.20;54.30;;;;;;5077907;28;20114;-73
2021/12/23 14:04:55;;;;;;;18.42;10.98;;;17.30;54.30;;;;;;5077774;28;20474;-73